sensor_id;sensor_type;location;lat;lon;timestamp;P1;P2;P0
74430;PMS7003;62863;52.062;23.764;2023-03-31T20:06:04;10.3;8.5;7
74430;PMS7003;62863;52.062;23.764;2023-03-31T20:11:36;13.4;12.2;9.4
74430;PMS7003;62863;52.062;23.764;2023-03-31T20:15:57;10;8;6.3
74430;PMS7003;62863;52.062;23.764;2023-03-31T20:21:04;10.4;7.8;6
74430;PMS7003;62863;52.062;23.764;2023-03-31T20:26:21;6.8;6.4;4.2
74430;PMS7003;62863;52.062;23.764;2023-03-31T20:31:22;8;6.8;5.8
74430;PMS7003;62863;52.062;23.764;2023-03-31T20:36:37;11.6;9.4;7.2
74430;PMS7003;62863;52.062;23.764;2023-03-31T20:41:14;7.4;7.2;4.8
74430;PMS7003;62863;52.062;23.764;2023-03-31T20:46:20;8.5;7;5.5
74430;PMS7003;62863;52.062;23.764;2023-03-31T20:51:21;9.2;7.8;6.2
74430;PMS7003;62863;52.062;23.764;2023-03-31T20:56:31;11.4;10.4;8.4
74430;PMS7003;62863;52.062;23.764;2023-03-31T21:01:34;50;40.8;28.4
74430;PMS7003;62863;52.062;23.764;2023-03-31T21:06:14;57.2;45;29.6
74430;PMS7003;62863;52.062;23.764;2023-03-31T21:11:06;16.4;14.2;10.2
74430;PMS7003;62863;52.062;23.764;2023-03-31T21:16:20;11.6;9.2;7.2
74430;PMS7003;62863;52.062;23.764;2023-03-31T21:21:07;9.4;8.6;7
74430;PMS7003;62863;52.062;23.764;2023-03-31T21:26:36;10.2;9;8
74430;PMS7003;62863;52.062;23.764;2023-03-31T21:31:16;13.2;10;7.2
74430;PMS7003;62863;52.062;23.764;2023-03-31T21:36:36;11.8;11.2;8.4
74430;PMS7003;62863;52.062;23.764;2023-03-31T21:41:23;15.2;13.2;9.4
74430;PMS7003;62863;52.062;23.764;2023-03-31T21:45:56;14;13.5;10.5
74430;PMS7003;62863;52.062;23.764;2023-03-31T21:51:38;15;12.8;10.4
74430;PMS7003;62863;52.062;23.764;2023-03-31T21:56:14;16.4;13.6;10.4
74430;PMS7003;62863;52.062;23.764;2023-03-31T22:01:38;17;15.4;11
74430;PMS7003;62863;52.062;23.764;2023-03-31T22:06:22;17.2;15.6;11.2
74430;PMS7003;62863;52.062;23.764;2023-03-31T22:10:56;19.6;15.8;12
74430;PMS7003;62863;52.062;23.764;2023-03-31T22:16:36;21.8;17.2;12.4
74430;PMS7003;62863;52.062;23.764;2023-03-31T22:20:56;21.4;16.6;11.6
74430;PMS7003;62863;52.062;23.764;2023-03-31T22:26:36;19.4;16.6;12.4
74430;PMS7003;62863;52.062;23.764;2023-03-31T22:31:20;18.8;16.2;11.6
74430;PMS7003;62863;52.062;23.764;2023-03-31T22:36:06;18.6;16.2;12.2
74430;PMS7003;62863;52.062;23.764;2023-03-31T22:41:36;21.2;16.6;12
74430;PMS7003;62863;52.062;23.764;2023-03-31T22:46:14;19.5;16.8;12.5
74430;PMS7003;62863;52.062;23.764;2023-03-31T22:51:36;22.6;19.2;14.2
74430;PMS7003;62863;52.062;23.764;2023-03-31T22:56:20;21.6;19.6;14.6
74430;PMS7003;62863;52.062;23.764;2023-03-31T23:00:56;22.8;18.6;15.2
74430;PMS7003;62863;52.062;23.764;2023-03-31T23:06:36;20.2;18.8;14
74430;PMS7003;62863;52.062;23.764;2023-03-31T23:11:05;22.4;20.2;13.6
74430;PMS7003;62863;52.062;23.764;2023-03-31T23:16:36;22;20.2;13.4
74430;PMS7003;62863;52.062;23.764;2023-03-31T23:21:21;21;18;11.8
74430;PMS7003;62863;52.062;23.764;2023-03-31T23:25:58;19.2;16.6;11.8
74430;PMS7003;62863;52.062;23.764;2023-03-31T23:31:38;21.4;19;13.4
74430;PMS7003;62863;52.062;23.764;2023-03-31T23:36:06;18.4;17.4;12.6
74430;PMS7003;62863;52.062;23.764;2023-03-31T23:41:36;20;17;14
74430;PMS7003;62863;52.062;23.764;2023-03-31T23:46:20;18.6;16.8;12.6
74430;PMS7003;62863;52.062;23.764;2023-03-31T23:51:05;18;16.2;12.4
74430;PMS7003;62863;52.062;23.764;2023-03-31T23:56:36;18.2;15.8;12
